sensor_id;sensor_type;location;lat;lon;timestamp;P1;durP1;ratioP1;P2;durP2;ratioP2
8098;SDS011;4092;47.876;9.372;2023-05-07T00:02:17;7.40;;;3.07;;
8098;SDS011;4092;47.876;9.372;2023-05-07T00:04:44;4.83;;;3.20;;
8098;SDS011;4092;47.876;9.372;2023-05-07T00:07:12;3.73;;;3.10;;
8098;SDS011;4092;47.876;9.372;2023-05-07T00:09:39;5.30;;;3.40;;
8098;SDS011;4092;47.876;9.372;2023-05-07T00:12:06;4.47;;;3.10;;
8098;SDS011;4092;47.876;9.372;2023-05-07T00:14:33;3.50;;;3.10;;
8098;SDS011;4092;47.876;9.372;2023-05-07T00:17:00;6.00;;;3.63;;
8098;SDS011;4092;47.876;9.372;2023-05-07T00:19:28;3.77;;;3.40;;
8098;SDS011;4092;47.876;9.372;2023-05-07T00:21:55;5.70;;;4.13;;
8098;SDS011;4092;47.876;9.372;2023-05-07T00:24:23;3.43;;;2.60;;
8098;SDS011;4092;47.876;9.372;2023-05-07T00:26:50;3.50;;;3.10;;
8098;SDS011;4092;47.876;9.372;2023-05-07T00:29:17;9.23;;;3.27;;
8098;SDS011;4092;47.876;9.372;2023-05-07T00:31:45;5.03;;;3.30;;
8098;SDS011;4092;47.876;9.372;2023-05-07T00:34:12;4.43;;;3.00;;
8098;SDS011;4092;47.876;9.372;2023-05-07T00:36:39;4.27;;;3.37;;
8098;SDS011;4092;47.876;9.372;2023-05-07T00:39:06;4.90;;;3.17;;
8098;SDS011;4092;47.876;9.372;2023-05-07T00:41:34;4.60;;;3.80;;
8098;SDS011;4092;47.876;9.372;2023-05-07T00:44:01;6.43;;;3.30;;
8098;SDS011;4092;47.876;9.372;2023-05-07T00:46:28;5.47;;;3.00;;
8098;SDS011;4092;47.876;9.372;2023-05-07T00:48:57;4.50;;;3.43;;
8098;SDS011;4092;47.876;9.372;2023-05-07T00:51:25;4.00;;;3.60;;
8098;SDS011;4092;47.876;9.372;2023-05-07T00:53:53;4.60;;;3.13;;
8098;SDS011;4092;47.876;9.372;2023-05-07T00:56:20;4.70;;;3.13;;
8098;SDS011;4092;47.876;9.372;2023-05-07T00:58:49;2.50;;;2.30;;
8098;SDS011;4092;47.876;9.372;2023-05-07T01:01:16;3.30;;;2.90;;
8098;SDS011;4092;47.876;9.372;2023-05-07T01:03:43;4.20;;;3.00;;
8098;SDS011;4092;47.876;9.372;2023-05-07T01:06:10;5.50;;;3.87;;
8098;SDS011;4092;47.876;9.372;2023-05-07T01:08:41;4.17;;;2.67;;
8098;SDS011;4092;47.876;9.372;2023-05-07T01:11:09;5.27;;;2.93;;
8098;SDS011;4092;47.876;9.372;2023-05-07T01:13:37;5.60;;;3.20;;
8098;SDS011;4092;47.876;9.372;2023-05-07T01:16:07;4.30;;;3.10;;
8098;SDS011;4092;47.876;9.372;2023-05-07T01:18:35;6.80;;;3.70;;
8098;SDS011;4092;47.876;9.372;2023-05-07T01:21:03;4.67;;;3.47;;
8098;SDS011;4092;47.876;9.372;2023-05-07T01:23:32;4.37;;;3.27;;
8098;SDS011;4092;47.876;9.372;2023-05-07T01:26:01;5.33;;;3.40;;
8098;SDS011;4092;47.876;9.372;2023-05-07T01:28:28;6.30;;;4.37;;
8098;SDS011;4092;47.876;9.372;2023-05-07T01:30:56;4.33;;;3.93;;
8098;SDS011;4092;47.876;9.372;2023-05-07T01:33:29;6.23;;;3.47;;
8098;SDS011;4092;47.876;9.372;2023-05-07T01:35:57;4.53;;;4.13;;
8098;SDS011;4092;47.876;9.372;2023-05-07T01:38:27;4.37;;;2.73;;
8098;SDS011;4092;47.876;9.372;2023-05-07T01:40:57;4.33;;;3.93;;
8098;SDS011;4092;47.876;9.372;2023-05-07T01:43:24;3.73;;;3.23;;
8098;SDS011;4092;47.876;9.372;2023-05-07T01:45:52;10.90;;;3.30;;
8098;SDS011;4092;47.876;9.372;2023-05-07T01:48:19;5.20;;;3.03;;
8098;SDS011;4092;47.876;9.372;2023-05-07T01:50:47;5.60;;;4.40;;
8098;SDS011;4092;47.876;9.372;2023-05-07T01:53:15;3.60;;;3.30;;
8098;SDS011;4092;47.876;9.372;2023-05-07T01:55:42;7.33;;;3.13;;
8098;SDS011;4092;47.876;9.372;2023-05-07T01:58:10;5.30;;;3.80;;
8098;SDS011;4092;47.876;9.372;2023-05-07T02:00:37;5.93;;;3.40;;
8098;SDS011;4092;47.876;9.372;2023-05-07T02:03:04;4.53;;;4.03;;
8098;SDS011;4092;47.876;9.372;2023-05-07T02:05:31;4.20;;;3.50;;
8098;SDS011;4092;47.876;9.372;2023-05-07T02:07:58;4.50;;;3.60;;
8098;SDS011;4092;47.876;9.372;2023-05-07T02:10:25;10.03;;;3.50;;
8098;SDS011;4092;47.876;9.372;2023-05-07T02:12:52;4.07;;;3.13;;
8098;SDS011;4092;47.876;9.372;2023-05-07T02:15:21;5.43;;;3.90;;
8098;SDS011;4092;47.876;9.372;2023-05-07T02:18:00;4.77;;;3.73;;
8098;SDS011;4092;47.876;9.372;2023-05-07T02:20:28;10.50;;;4.27;;
8098;SDS011;4092;47.876;9.372;2023-05-07T02:22:55;5.83;;;3.53;;
8098;SDS011;4092;47.876;9.372;2023-05-07T02:25:22;6.60;;;3.57;;
8098;SDS011;4092;47.876;9.372;2023-05-07T02:27:49;4.00;;;3.03;;
8098;SDS011;4092;47.876;9.372;2023-05-07T02:30:17;4.70;;;3.27;;
8098;SDS011;4092;47.876;9.372;2023-05-07T02:32:47;7.00;;;4.17;;
8098;SDS011;4092;47.876;9.372;2023-05-07T02:35:14;6.00;;;3.30;;
8098;SDS011;4092;47.876;9.372;2023-05-07T02:37:41;5.50;;;4.37;;
8098;SDS011;4092;47.876;9.372;2023-05-07T02:40:09;4.90;;;3.50;;
8098;SDS011;4092;47.876;9.372;2023-05-07T02:42:37;4.40;;;3.60;;
8098;SDS011;4092;47.876;9.372;2023-05-07T02:45:04;7.90;;;3.60;;
8098;SDS011;4092;47.876;9.372;2023-05-07T02:47:32;5.50;;;3.93;;
8098;SDS011;4092;47.876;9.372;2023-05-07T02:50:00;15.80;;;3.43;;
8098;SDS011;4092;47.876;9.372;2023-05-07T02:52:27;5.07;;;3.97;;
8098;SDS011;4092;47.876;9.372;2023-05-07T02:54:54;4.00;;;3.30;;
8098;SDS011;4092;47.876;9.372;2023-05-07T02:57:21;5.17;;;3.80;;
8098;SDS011;4092;47.876;9.372;2023-05-07T02:59:48;6.13;;;3.40;;
8098;SDS011;4092;47.876;9.372;2023-05-07T03:02:15;4.20;;;2.93;;
8098;SDS011;4092;47.876;9.372;2023-05-07T03:04:42;3.60;;;3.30;;
8098;SDS011;4092;47.876;9.372;2023-05-07T03:07:11;3.70;;;3.20;;
8098;SDS011;4092;47.876;9.372;2023-05-07T03:09:38;4.17;;;3.13;;
8098;SDS011;4092;47.876;9.372;2023-05-07T03:12:05;3.20;;;2.50;;
8098;SDS011;4092;47.876;9.372;2023-05-07T03:14:32;3.67;;;3.30;;
8098;SDS011;4092;47.876;9.372;2023-05-07T03:16:59;5.20;;;3.47;;
8098;SDS011;4092;47.876;9.372;2023-05-07T03:19:28;6.20;;;3.10;;
8098;SDS011;4092;47.876;9.372;2023-05-07T03:21:55;8.27;;;2.93;;
8098;SDS011;4092;47.876;9.372;2023-05-07T03:24:24;3.83;;;3.20;;
8098;SDS011;4092;47.876;9.372;2023-05-07T03:26:51;10.10;;;3.33;;
8098;SDS011;4092;47.876;9.372;2023-05-07T03:29:18;5.37;;;3.30;;
8098;SDS011;4092;47.876;9.372;2023-05-07T03:31:45;6.37;;;4.60;;
8098;SDS011;4092;47.876;9.372;2023-05-07T03:34:12;5.50;;;3.57;;
8098;SDS011;4092;47.876;9.372;2023-05-07T03:36:38;7.20;;;3.50;;
8098;SDS011;4092;47.876;9.372;2023-05-07T03:39:05;3.97;;;3.27;;
8098;SDS011;4092;47.876;9.372;2023-05-07T03:41:34;4.20;;;3.30;;
8098;SDS011;4092;47.876;9.372;2023-05-07T03:44:01;4.33;;;3.27;;
8098;SDS011;4092;47.876;9.372;2023-05-07T03:46:28;4.97;;;4.20;;
8098;SDS011;4092;47.876;9.372;2023-05-07T03:48:56;4.07;;;3.63;;
8098;SDS011;4092;47.876;9.372;2023-05-07T03:51:22;4.03;;;3.57;;
8098;SDS011;4092;47.876;9.372;2023-05-07T03:53:50;3.87;;;3.47;;
8098;SDS011;4092;47.876;9.372;2023-05-07T03:56:18;5.37;;;3.77;;
8098;SDS011;4092;47.876;9.372;2023-05-07T03:58:47;4.83;;;3.27;;
8098;SDS011;4092;47.876;9.372;2023-05-07T04:01:14;3.40;;;3.07;;
8098;SDS011;4092;47.876;9.372;2023-05-07T04:03:41;3.10;;;2.80;;
8098;SDS011;4092;47.876;9.372;2023-05-07T04:06:08;5.07;;;2.30;;
8098;SDS011;4092;47.876;9.372;2023-05-07T04:08:35;4.67;;;2.70;;
8098;SDS011;4092;47.876;9.372;2023-05-07T04:11:02;4.47;;;2.70;;
8098;SDS011;4092;47.876;9.372;2023-05-07T04:13:29;4.33;;;2.87;;
8098;SDS011;4092;47.876;9.372;2023-05-07T04:15:58;3.60;;;2.60;;
8098;SDS011;4092;47.876;9.372;2023-05-07T04:18:27;3.03;;;2.53;;
8098;SDS011;4092;47.876;9.372;2023-05-07T04:20:54;3.07;;;2.77;;
8098;SDS011;4092;47.876;9.372;2023-05-07T04:23:21;2.83;;;2.50;;
8098;SDS011;4092;47.876;9.372;2023-05-07T04:25:48;5.43;;;2.53;;
8098;SDS011;4092;47.876;9.372;2023-05-07T04:28:16;2.47;;;2.27;;
8098;SDS011;4092;47.876;9.372;2023-05-07T04:30:43;3.70;;;3.03;;
8098;SDS011;4092;47.876;9.372;2023-05-07T04:33:11;3.57;;;2.50;;
8098;SDS011;4092;47.876;9.372;2023-05-07T04:35:39;4.17;;;2.70;;
8098;SDS011;4092;47.876;9.372;2023-05-07T04:38:06;3.40;;;2.33;;
8098;SDS011;4092;47.876;9.372;2023-05-07T04:40:35;3.40;;;3.00;;
8098;SDS011;4092;47.876;9.372;2023-05-07T04:43:02;4.10;;;3.30;;
8098;SDS011;4092;47.876;9.372;2023-05-07T04:45:29;5.20;;;3.40;;
8098;SDS011;4092;47.876;9.372;2023-05-07T04:47:57;6.67;;;3.47;;
8098;SDS011;4092;47.876;9.372;2023-05-07T04:50:25;9.60;;;2.97;;
8098;SDS011;4092;47.876;9.372;2023-05-07T04:52:52;6.03;;;3.67;;
8098;SDS011;4092;47.876;9.372;2023-05-07T04:55:19;5.00;;;3.67;;
8098;SDS011;4092;47.876;9.372;2023-05-07T04:57:46;4.97;;;2.37;;
8098;SDS011;4092;47.876;9.372;2023-05-07T05:00:13;4.83;;;3.00;;
8098;SDS011;4092;47.876;9.372;2023-05-07T05:02:41;5.50;;;3.80;;
8098;SDS011;4092;47.876;9.372;2023-05-07T05:05:09;4.20;;;3.43;;
8098;SDS011;4092;47.876;9.372;2023-05-07T05:07:37;4.77;;;3.63;;
8098;SDS011;4092;47.876;9.372;2023-05-07T05:10:05;5.37;;;3.80;;
8098;SDS011;4092;47.876;9.372;2023-05-07T05:12:33;3.50;;;3.10;;
8098;SDS011;4092;47.876;9.372;2023-05-07T05:15:03;5.33;;;3.67;;
8098;SDS011;4092;47.876;9.372;2023-05-07T05:17:31;5.20;;;3.37;;
8098;SDS011;4092;47.876;9.372;2023-05-07T05:19:59;4.13;;;3.10;;
8098;SDS011;4092;47.876;9.372;2023-05-07T05:22:26;3.33;;;2.77;;
8098;SDS011;4092;47.876;9.372;2023-05-07T05:24:56;5.53;;;3.57;;
8098;SDS011;4092;47.876;9.372;2023-05-07T05:27:26;4.63;;;2.70;;
8098;SDS011;4092;47.876;9.372;2023-05-07T05:30:13;4.50;;;3.97;;
8098;SDS011;4092;47.876;9.372;2023-05-07T05:32:47;5.80;;;4.50;;
8098;SDS011;4092;47.876;9.372;2023-05-07T05:35:14;5.50;;;4.50;;
8098;SDS011;4092;47.876;9.372;2023-05-07T05:37:41;7.50;;;4.30;;
8098;SDS011;4092;47.876;9.372;2023-05-07T05:40:10;5.37;;;3.30;;
8098;SDS011;4092;47.876;9.372;2023-05-07T05:42:37;3.50;;;2.73;;
8098;SDS011;4092;47.876;9.372;2023-05-07T05:45:05;4.47;;;3.90;;
8098;SDS011;4092;47.876;9.372;2023-05-07T05:47:33;2.80;;;2.53;;
8098;SDS011;4092;47.876;9.372;2023-05-07T05:50:00;5.00;;;3.63;;
8098;SDS011;4092;47.876;9.372;2023-05-07T05:52:27;4.90;;;3.20;;
8098;SDS011;4092;47.876;9.372;2023-05-07T05:54:54;3.10;;;2.73;;
8098;SDS011;4092;47.876;9.372;2023-05-07T05:57:23;6.53;;;3.83;;
8098;SDS011;4092;47.876;9.372;2023-05-07T05:59:50;5.53;;;5.03;;
8098;SDS011;4092;47.876;9.372;2023-05-07T06:02:17;5.23;;;3.53;;
8098;SDS011;4092;47.876;9.372;2023-05-07T06:04:46;5.60;;;4.13;;
8098;SDS011;4092;47.876;9.372;2023-05-07T06:07:14;6.70;;;3.00;;
8098;SDS011;4092;47.876;9.372;2023-05-07T06:09:41;5.50;;;3.27;;
8098;SDS011;4092;47.876;9.372;2023-05-07T06:12:08;3.90;;;3.33;;
8098;SDS011;4092;47.876;9.372;2023-05-07T06:14:36;4.93;;;3.53;;
8098;SDS011;4092;47.876;9.372;2023-05-07T06:17:03;11.10;;;6.60;;
8098;SDS011;4092;47.876;9.372;2023-05-07T06:19:30;8.50;;;6.27;;
8098;SDS011;4092;47.876;9.372;2023-05-07T06:21:57;4.00;;;3.60;;
8098;SDS011;4092;47.876;9.372;2023-05-07T06:24:26;5.17;;;3.50;;
8098;SDS011;4092;47.876;9.372;2023-05-07T06:26:53;5.83;;;4.20;;
8098;SDS011;4092;47.876;9.372;2023-05-07T06:29:20;7.90;;;5.43;;
8098;SDS011;4092;47.876;9.372;2023-05-07T06:31:49;3.80;;;3.47;;
8098;SDS011;4092;47.876;9.372;2023-05-07T06:34:15;4.87;;;4.13;;
8098;SDS011;4092;47.876;9.372;2023-05-07T06:36:42;4.27;;;3.17;;
8098;SDS011;4092;47.876;9.372;2023-05-07T06:39:09;3.53;;;3.23;;
8098;SDS011;4092;47.876;9.372;2023-05-07T06:41:37;3.50;;;3.20;;
8098;SDS011;4092;47.876;9.372;2023-05-07T06:44:04;4.90;;;2.73;;
8098;SDS011;4092;47.876;9.372;2023-05-07T06:46:31;4.27;;;3.03;;
8098;SDS011;4092;47.876;9.372;2023-05-07T06:48:59;4.07;;;3.03;;
8098;SDS011;4092;47.876;9.372;2023-05-07T06:51:28;2.80;;;2.30;;
8098;SDS011;4092;47.876;9.372;2023-05-07T06:53:55;3.13;;;2.87;;
8098;SDS011;4092;47.876;9.372;2023-05-07T06:56:22;11.00;;;2.13;;
8098;SDS011;4092;47.876;9.372;2023-05-07T06:58:49;2.40;;;2.10;;
8098;SDS011;4092;47.876;9.372;2023-05-07T07:01:16;3.03;;;2.77;;
8098;SDS011;4092;47.876;9.372;2023-05-07T07:03:43;5.10;;;2.70;;
8098;SDS011;4092;47.876;9.372;2023-05-07T07:06:11;5.43;;;2.90;;
8098;SDS011;4092;47.876;9.372;2023-05-07T07:08:38;4.90;;;2.77;;
8098;SDS011;4092;47.876;9.372;2023-05-07T07:11:06;5.93;;;3.80;;
8098;SDS011;4092;47.876;9.372;2023-05-07T07:13:34;3.23;;;2.80;;
8098;SDS011;4092;47.876;9.372;2023-05-07T07:16:01;3.33;;;2.40;;
8098;SDS011;4092;47.876;9.372;2023-05-07T07:18:28;4.80;;;2.90;;
8098;SDS011;4092;47.876;9.372;2023-05-07T07:20:55;4.10;;;2.77;;
8098;SDS011;4092;47.876;9.372;2023-05-07T07:23:24;4.13;;;3.00;;
8098;SDS011;4092;47.876;9.372;2023-05-07T07:25:51;3.60;;;2.70;;
8098;SDS011;4092;47.876;9.372;2023-05-07T07:28:20;3.00;;;2.57;;
8098;SDS011;4092;47.876;9.372;2023-05-07T07:30:47;5.10;;;3.50;;
8098;SDS011;4092;47.876;9.372;2023-05-07T07:33:14;5.97;;;3.00;;
8098;SDS011;4092;47.876;9.372;2023-05-07T07:35:41;3.53;;;2.83;;
8098;SDS011;4092;47.876;9.372;2023-05-07T07:38:08;4.10;;;3.00;;
8098;SDS011;4092;47.876;9.372;2023-05-07T07:40:37;5.23;;;2.90;;
8098;SDS011;4092;47.876;9.372;2023-05-07T07:43:05;4.90;;;3.60;;
8098;SDS011;4092;47.876;9.372;2023-05-07T07:45:32;4.37;;;2.77;;
8098;SDS011;4092;47.876;9.372;2023-05-07T07:47:59;3.27;;;2.93;;
8098;SDS011;4092;47.876;9.372;2023-05-07T07:50:25;5.47;;;2.80;;
8098;SDS011;4092;47.876;9.372;2023-05-07T07:52:53;4.20;;;2.40;;
8098;SDS011;4092;47.876;9.372;2023-05-07T07:55:23;3.03;;;2.27;;
8098;SDS011;4092;47.876;9.372;2023-05-07T07:57:53;4.23;;;2.47;;
8098;SDS011;4092;47.876;9.372;2023-05-07T08:00:22;3.57;;;2.77;;
8098;SDS011;4092;47.876;9.372;2023-05-07T08:02:49;3.53;;;2.77;;
8098;SDS011;4092;47.876;9.372;2023-05-07T08:05:16;2.20;;;2.00;;
8098;SDS011;4092;47.876;9.372;2023-05-07T08:07:43;3.80;;;2.40;;
8098;SDS011;4092;47.876;9.372;2023-05-07T08:10:11;2.50;;;2.30;;
8098;SDS011;4092;47.876;9.372;2023-05-07T08:12:45;3.63;;;2.20;;
8098;SDS011;4092;47.876;9.372;2023-05-07T08:15:14;4.50;;;2.70;;
8098;SDS011;4092;47.876;9.372;2023-05-07T08:17:41;4.30;;;2.80;;
8098;SDS011;4092;47.876;9.372;2023-05-07T08:20:09;4.53;;;2.63;;
8098;SDS011;4092;47.876;9.372;2023-05-07T08:22:36;2.67;;;2.40;;
8098;SDS011;4092;47.876;9.372;2023-05-07T08:25:06;3.73;;;3.03;;
8098;SDS011;4092;47.876;9.372;2023-05-07T08:27:34;3.80;;;2.90;;
8098;SDS011;4092;47.876;9.372;2023-05-07T08:30:01;2.80;;;2.40;;
8098;SDS011;4092;47.876;9.372;2023-05-07T08:32:30;2.80;;;2.20;;
8098;SDS011;4092;47.876;9.372;2023-05-07T08:34:57;2.07;;;1.80;;
8098;SDS011;4092;47.876;9.372;2023-05-07T08:37:24;3.60;;;2.70;;
8098;SDS011;4092;47.876;9.372;2023-05-07T08:39:51;8.10;;;2.77;;
8098;SDS011;4092;47.876;9.372;2023-05-07T08:42:18;3.50;;;2.77;;
8098;SDS011;4092;47.876;9.372;2023-05-07T08:44:46;5.57;;;2.67;;
8098;SDS011;4092;47.876;9.372;2023-05-07T08:47:18;3.23;;;2.40;;
8098;SDS011;4092;47.876;9.372;2023-05-07T08:49:50;4.90;;;3.10;;
8098;SDS011;4092;47.876;9.372;2023-05-07T08:52:18;4.57;;;2.90;;
8098;SDS011;4092;47.876;9.372;2023-05-07T08:54:45;3.97;;;2.63;;
8098;SDS011;4092;47.876;9.372;2023-05-07T08:57:12;4.50;;;2.80;;
8098;SDS011;4092;47.876;9.372;2023-05-07T08:59:40;4.33;;;2.53;;
8098;SDS011;4092;47.876;9.372;2023-05-07T09:02:07;3.67;;;2.40;;
8098;SDS011;4092;47.876;9.372;2023-05-07T09:04:36;3.10;;;2.57;;
8098;SDS011;4092;47.876;9.372;2023-05-07T09:07:05;3.07;;;2.60;;
8098;SDS011;4092;47.876;9.372;2023-05-07T09:09:32;3.30;;;2.37;;
8098;SDS011;4092;47.876;9.372;2023-05-07T09:11:59;2.57;;;2.30;;
8098;SDS011;4092;47.876;9.372;2023-05-07T09:14:27;2.40;;;2.00;;
8098;SDS011;4092;47.876;9.372;2023-05-07T09:16:55;3.57;;;2.43;;
8098;SDS011;4092;47.876;9.372;2023-05-07T09:19:26;3.10;;;2.57;;
8098;SDS011;4092;47.876;9.372;2023-05-07T09:21:59;3.90;;;2.77;;
8098;SDS011;4092;47.876;9.372;2023-05-07T09:24:30;6.80;;;2.03;;
8098;SDS011;4092;47.876;9.372;2023-05-07T09:27:06;2.00;;;1.77;;
8098;SDS011;4092;47.876;9.372;2023-05-07T09:29:38;2.53;;;2.33;;
8098;SDS011;4092;47.876;9.372;2023-05-07T09:32:05;4.07;;;2.57;;
8098;SDS011;4092;47.876;9.372;2023-05-07T09:34:33;2.10;;;1.90;;
8098;SDS011;4092;47.876;9.372;2023-05-07T09:37:01;3.53;;;2.27;;
8098;SDS011;4092;47.876;9.372;2023-05-07T09:39:39;2.73;;;1.97;;
8098;SDS011;4092;47.876;9.372;2023-05-07T09:42:07;2.20;;;1.73;;
8098;SDS011;4092;47.876;9.372;2023-05-07T09:44:34;11.60;;;2.30;;
8098;SDS011;4092;47.876;9.372;2023-05-07T09:47:02;3.80;;;2.17;;
8098;SDS011;4092;47.876;9.372;2023-05-07T09:49:34;6.37;;;2.43;;
8098;SDS011;4092;47.876;9.372;2023-05-07T09:52:07;2.57;;;2.20;;
8098;SDS011;4092;47.876;9.372;2023-05-07T09:54:40;3.03;;;1.83;;
8098;SDS011;4092;47.876;9.372;2023-05-07T09:57:09;2.63;;;1.90;;
8098;SDS011;4092;47.876;9.372;2023-05-07T09:59:37;2.97;;;2.07;;
8098;SDS011;4092;47.876;9.372;2023-05-07T10:02:06;3.47;;;2.37;;
8098;SDS011;4092;47.876;9.372;2023-05-07T10:04:37;5.10;;;2.30;;
8098;SDS011;4092;47.876;9.372;2023-05-07T10:07:08;2.77;;;2.10;;
8098;SDS011;4092;47.876;9.372;2023-05-07T10:09:42;3.13;;;2.07;;
8098;SDS011;4092;47.876;9.372;2023-05-07T10:12:11;2.43;;;1.93;;
8098;SDS011;4092;47.876;9.372;2023-05-07T10:14:38;2.13;;;1.93;;
8098;SDS011;4092;47.876;9.372;2023-05-07T10:17:06;2.23;;;2.03;;
8098;SDS011;4092;47.876;9.372;2023-05-07T10:19:34;4.33;;;2.50;;
8098;SDS011;4092;47.876;9.372;2023-05-07T10:22:04;1.73;;;1.63;;
8098;SDS011;4092;47.876;9.372;2023-05-07T10:24:33;2.17;;;1.93;;
8098;SDS011;4092;47.876;9.372;2023-05-07T10:27:04;3.80;;;2.43;;
8098;SDS011;4092;47.876;9.372;2023-05-07T10:29:37;2.20;;;1.77;;
8098;SDS011;4092;47.876;9.372;2023-05-07T10:32:14;2.40;;;1.80;;
8098;SDS011;4092;47.876;9.372;2023-05-07T10:34:53;2.70;;;2.47;;
8098;SDS011;4092;47.876;9.372;2023-05-07T10:37:23;2.17;;;1.50;;
8098;SDS011;4092;47.876;9.372;2023-05-07T10:39:51;7.50;;;2.03;;
8098;SDS011;4092;47.876;9.372;2023-05-07T10:42:19;2.40;;;2.13;;
8098;SDS011;4092;47.876;9.372;2023-05-07T10:44:50;2.87;;;2.23;;
8098;SDS011;4092;47.876;9.372;2023-05-07T10:47:21;3.33;;;2.17;;
8098;SDS011;4092;47.876;9.372;2023-05-07T10:52:50;2.13;;;1.67;;
8098;SDS011;4092;47.876;9.372;2023-05-07T10:58:55;2.53;;;1.90;;
8098;SDS011;4092;47.876;9.372;2023-05-07T11:01:50;1.33;;;1.23;;
8098;SDS011;4092;47.876;9.372;2023-05-07T11:04:19;3.87;;;1.77;;
8098;SDS011;4092;47.876;9.372;2023-05-07T11:12:53;1.40;;;1.10;;
8098;SDS011;4092;47.876;9.372;2023-05-07T11:15:35;2.20;;;1.50;;
8098;SDS011;4092;47.876;9.372;2023-05-07T11:18:04;2.13;;;1.33;;
8098;SDS011;4092;47.876;9.372;2023-05-07T11:20:48;2.63;;;1.20;;
8098;SDS011;4092;47.876;9.372;2023-05-07T11:26:16;2.20;;;1.47;;
8098;SDS011;4092;47.876;9.372;2023-05-07T11:28:43;2.83;;;1.60;;
8098;SDS011;4092;47.876;9.372;2023-05-07T11:31:12;1.80;;;1.13;;
8098;SDS011;4092;47.876;9.372;2023-05-07T11:33:39;1.77;;;1.30;;
8098;SDS011;4092;47.876;9.372;2023-05-07T11:36:07;1.47;;;1.37;;
8098;SDS011;4092;47.876;9.372;2023-05-07T11:38:35;3.20;;;1.70;;
8098;SDS011;4092;47.876;9.372;2023-05-07T11:41:04;1.47;;;1.33;;
8098;SDS011;4092;47.876;9.372;2023-05-07T11:43:31;2.30;;;1.23;;
8098;SDS011;4092;47.876;9.372;2023-05-07T11:46:08;2.03;;;1.63;;
8098;SDS011;4092;47.876;9.372;2023-05-07T11:48:37;3.60;;;1.90;;
8098;SDS011;4092;47.876;9.372;2023-05-07T11:51:06;2.07;;;1.60;;
8098;SDS011;4092;47.876;9.372;2023-05-07T11:53:37;2.63;;;1.47;;
8098;SDS011;4092;47.876;9.372;2023-05-07T11:56:06;1.70;;;1.33;;
8098;SDS011;4092;47.876;9.372;2023-05-07T11:58:33;2.33;;;1.30;;
8098;SDS011;4092;47.876;9.372;2023-05-07T12:01:00;2.60;;;1.43;;
8098;SDS011;4092;47.876;9.372;2023-05-07T12:03:27;1.70;;;1.27;;
8098;SDS011;4092;47.876;9.372;2023-05-07T12:05:56;3.37;;;1.53;;
8098;SDS011;4092;47.876;9.372;2023-05-07T12:08:23;1.30;;;1.00;;
8098;SDS011;4092;47.876;9.372;2023-05-07T12:10:50;1.57;;;1.00;;
8098;SDS011;4092;47.876;9.372;2023-05-07T12:13:17;2.23;;;1.50;;
8098;SDS011;4092;47.876;9.372;2023-05-07T12:15:45;3.00;;;1.47;;
8098;SDS011;4092;47.876;9.372;2023-05-07T12:18:12;2.70;;;1.30;;
8098;SDS011;4092;47.876;9.372;2023-05-07T12:20:40;2.37;;;1.60;;
8098;SDS011;4092;47.876;9.372;2023-05-07T12:23:12;6.30;;;1.47;;
8098;SDS011;4092;47.876;9.372;2023-05-07T12:25:40;1.97;;;1.30;;
8098;SDS011;4092;47.876;9.372;2023-05-07T12:28:12;2.07;;;1.00;;
8098;SDS011;4092;47.876;9.372;2023-05-07T12:30:39;1.43;;;1.33;;
8098;SDS011;4092;47.876;9.372;2023-05-07T12:33:06;1.57;;;1.43;;
8098;SDS011;4092;47.876;9.372;2023-05-07T12:35:38;1.53;;;1.17;;
8098;SDS011;4092;47.876;9.372;2023-05-07T12:38:07;5.33;;;1.70;;
8098;SDS011;4092;47.876;9.372;2023-05-07T12:40:37;2.93;;;1.50;;
8098;SDS011;4092;47.876;9.372;2023-05-07T12:43:05;1.80;;;1.10;;
8098;SDS011;4092;47.876;9.372;2023-05-07T12:45:36;1.30;;;1.20;;
8098;SDS011;4092;47.876;9.372;2023-05-07T12:48:04;1.37;;;1.27;;
8098;SDS011;4092;47.876;9.372;2023-05-07T12:50:35;1.83;;;1.67;;
8098;SDS011;4092;47.876;9.372;2023-05-07T12:53:02;2.20;;;1.63;;
8098;SDS011;4092;47.876;9.372;2023-05-07T12:55:43;1.60;;;1.50;;
8098;SDS011;4092;47.876;9.372;2023-05-07T12:58:15;3.30;;;1.27;;
8098;SDS011;4092;47.876;9.372;2023-05-07T13:00:43;3.00;;;2.20;;
8098;SDS011;4092;47.876;9.372;2023-05-07T13:03:11;2.27;;;1.83;;
8098;SDS011;4092;47.876;9.372;2023-05-07T13:05:38;2.00;;;1.30;;
8098;SDS011;4092;47.876;9.372;2023-05-07T13:08:08;1.40;;;1.10;;
8098;SDS011;4092;47.876;9.372;2023-05-07T13:10:36;3.87;;;1.80;;
8098;SDS011;4092;47.876;9.372;2023-05-07T13:13:04;3.63;;;1.57;;
8098;SDS011;4092;47.876;9.372;2023-05-07T13:15:31;1.40;;;1.07;;
8098;SDS011;4092;47.876;9.372;2023-05-07T13:17:58;3.10;;;1.33;;
8098;SDS011;4092;47.876;9.372;2023-05-07T13:20:25;2.43;;;1.47;;
8098;SDS011;4092;47.876;9.372;2023-05-07T13:22:53;2.50;;;1.60;;
8098;SDS011;4092;47.876;9.372;2023-05-07T13:25:20;1.47;;;1.23;;
8098;SDS011;4092;47.876;9.372;2023-05-07T13:27:47;2.17;;;1.97;;
8098;SDS011;4092;47.876;9.372;2023-05-07T13:30:15;2.60;;;2.30;;
8098;SDS011;4092;47.876;9.372;2023-05-07T13:32:42;1.90;;;1.10;;
8098;SDS011;4092;47.876;9.372;2023-05-07T13:35:10;1.20;;;1.07;;
8098;SDS011;4092;47.876;9.372;2023-05-07T13:37:37;1.70;;;1.30;;
8098;SDS011;4092;47.876;9.372;2023-05-07T13:40:05;2.07;;;1.10;;
8098;SDS011;4092;47.876;9.372;2023-05-07T13:42:33;2.70;;;1.83;;
8098;SDS011;4092;47.876;9.372;2023-05-07T13:45:00;1.90;;;1.50;;
8098;SDS011;4092;47.876;9.372;2023-05-07T13:47:31;1.30;;;1.10;;
8098;SDS011;4092;47.876;9.372;2023-05-07T13:49:58;1.30;;;0.97;;
8098;SDS011;4092;47.876;9.372;2023-05-07T13:52:25;8.20;;;3.37;;
8098;SDS011;4092;47.876;9.372;2023-05-07T13:54:52;2.10;;;1.80;;
8098;SDS011;4092;47.876;9.372;2023-05-07T13:57:20;2.13;;;1.33;;
8098;SDS011;4092;47.876;9.372;2023-05-07T13:59:47;1.67;;;1.30;;
8098;SDS011;4092;47.876;9.372;2023-05-07T14:02:14;2.80;;;1.60;;
8098;SDS011;4092;47.876;9.372;2023-05-07T14:04:42;2.77;;;1.90;;
8098;SDS011;4092;47.876;9.372;2023-05-07T14:07:10;1.87;;;1.57;;
8098;SDS011;4092;47.876;9.372;2023-05-07T14:09:37;1.40;;;1.30;;
8098;SDS011;4092;47.876;9.372;2023-05-07T14:12:04;2.47;;;1.77;;
8098;SDS011;4092;47.876;9.372;2023-05-07T14:14:32;4.43;;;1.90;;
8098;SDS011;4092;47.876;9.372;2023-05-07T14:16:59;1.50;;;1.10;;
8098;SDS011;4092;47.876;9.372;2023-05-07T14:19:26;1.70;;;1.00;;
8098;SDS011;4092;47.876;9.372;2023-05-07T14:21:54;1.43;;;1.03;;
8098;SDS011;4092;47.876;9.372;2023-05-07T14:24:22;3.17;;;1.00;;
8098;SDS011;4092;47.876;9.372;2023-05-07T14:26:51;1.70;;;0.93;;
8098;SDS011;4092;47.876;9.372;2023-05-07T14:29:18;2.57;;;0.93;;
8098;SDS011;4092;47.876;9.372;2023-05-07T14:31:48;1.30;;;1.10;;
8098;SDS011;4092;47.876;9.372;2023-05-07T14:34:15;1.33;;;0.87;;
8098;SDS011;4092;47.876;9.372;2023-05-07T14:36:44;4.23;;;0.97;;
8098;SDS011;4092;47.876;9.372;2023-05-07T14:39:12;1.67;;;1.13;;
8098;SDS011;4092;47.876;9.372;2023-05-07T14:41:42;1.27;;;0.80;;
8098;SDS011;4092;47.876;9.372;2023-05-07T14:44:11;5.10;;;1.27;;
8098;SDS011;4092;47.876;9.372;2023-05-07T14:46:38;1.80;;;0.90;;
8098;SDS011;4092;47.876;9.372;2023-05-07T14:49:08;3.50;;;1.20;;
8098;SDS011;4092;47.876;9.372;2023-05-07T14:51:41;1.27;;;1.10;;
8098;SDS011;4092;47.876;9.372;2023-05-07T14:54:11;2.03;;;1.40;;
8098;SDS011;4092;47.876;9.372;2023-05-07T14:56:40;1.50;;;1.00;;
8098;SDS011;4092;47.876;9.372;2023-05-07T14:59:08;2.73;;;2.53;;
8098;SDS011;4092;47.876;9.372;2023-05-07T15:01:49;2.47;;;1.50;;
8098;SDS011;4092;47.876;9.372;2023-05-07T15:04:17;2.33;;;1.60;;
8098;SDS011;4092;47.876;9.372;2023-05-07T15:06:47;2.77;;;1.10;;
8098;SDS011;4092;47.876;9.372;2023-05-07T15:09:20;4.40;;;1.37;;
8098;SDS011;4092;47.876;9.372;2023-05-07T15:11:47;1.97;;;0.93;;
8098;SDS011;4092;47.876;9.372;2023-05-07T15:14:14;2.10;;;1.33;;
8098;SDS011;4092;47.876;9.372;2023-05-07T15:16:41;1.90;;;1.03;;
8098;SDS011;4092;47.876;9.372;2023-05-07T15:19:08;1.40;;;1.30;;
8098;SDS011;4092;47.876;9.372;2023-05-07T15:21:38;2.00;;;1.80;;
8098;SDS011;4092;47.876;9.372;2023-05-07T15:24:06;1.77;;;1.13;;
8098;SDS011;4092;47.876;9.372;2023-05-07T15:26:35;1.70;;;1.20;;
8098;SDS011;4092;47.876;9.372;2023-05-07T15:29:02;1.30;;;1.20;;
8098;SDS011;4092;47.876;9.372;2023-05-07T15:31:35;2.70;;;1.27;;
8098;SDS011;4092;47.876;9.372;2023-05-07T15:34:03;1.50;;;1.07;;
8098;SDS011;4092;47.876;9.372;2023-05-07T15:36:31;2.07;;;1.73;;
8098;SDS011;4092;47.876;9.372;2023-05-07T15:39:01;1.60;;;0.97;;